Main page
METAR-TAF:

METAR-TAF

Airports :

Antonio Nariño Airport

Pasto, Colombia

latitude: 01-25N, longitude: 077-16W, elevation: 1826 m

Current weather observation

The report was made 13 hours and 54 minutes ago, at 19:00 UTC
Wind 5 kt from the North/Northwest
Temperature 21°C
Humidity 78%
Pressure 1020 hPa
Visibility 10 km or more
Few clouds at a height of 2000 ft
Broken clouds at a height of 8000 ft

METAR: SKPS 021900Z 33005KT 9999 FEW020 BKN080 21/17 A3012

Time: 03:54 (08:54 UTC)


TAF: missing

Weather observations and forecasts of more than 4000 airports (METAR and TAF reports).

The available stations are represented by yellow and red dots on the map.

Hover mouse over dot to see the name of the station.

Then click to see weather observations and forecasts.

To change the map : click on the green buttons with a black cross to zoom in, on the green button with a dash to zoom out, or on the green arrows for adjacent maps.


METAR-TAF: